Time;durP1;ratioP1;P1;durP2;ratioP2;P2;SDS_P1;SDS_P2;PMS_P1;PMS_P2;Temp;Humidity;BMP_temperature;BMP_pressure;BME280_temperature;BME280_humidity;BME280_pressure;Samples;Min_cycle;Max_cycle;Signal;HPM_P1;HPM_P2
2023/01/23 00:01:12;;;;;;;12.17;11.17;;;;;;;8.48;90.74;93223.91;5009153;28;20223;-80
2023/01/23 00:03:37;;;;;;;11.00;10.30;;;;;;;8.30;92.06;93224.28;5009005;28;20201;-81
2023/01/23 00:06:11;;;;;;;11.57;10.87;;;;;;;8.09;92.37;93192.13;5008123;28;20291;-79
2023/01/23 00:08:37;;;;;;;10.60;9.80;;;;;;;8.27;92.82;93235.16;5010452;28;20214;-79
2023/01/23 00:11:29;;;;;;;12.20;11.17;;;;;;;8.28;92.68;93234.16;5009534;28;20223;-79
2023/01/23 00:13:56;;;;;;;11.67;10.87;;;;;;;8.41;92.52;93238.91;5007634;28;20202;-80
2023/01/23 00:16:24;;;;;;;12.03;11.10;;;;;;;8.38;92.01;93221.22;5008835;28;20272;-79
2023/01/23 00:18:50;;;;;;;11.57;10.77;;;;;;;8.29;91.91;93209.72;5009194;28;20191;-80
2023/01/23 00:21:21;;;;;;;12.17;10.97;;;;;;;8.49;91.48;93228.06;5010038;28;20262;-80
2023/01/23 00:23:49;;;;;;;11.70;10.83;;;;;;;8.34;92.79;93230.56;5009095;28;20183;-80
2023/01/23 00:26:18;;;;;;;11.43;10.43;;;;;;;8.38;92.64;93231.63;5008158;28;20210;-80
2023/01/23 00:28:45;;;;;;;11.60;10.70;;;;;;;8.20;92.27;93189.31;5008425;28;20190;-79
2023/01/23 00:31:16;;;;;;;11.23;10.53;;;;;;;8.32;93.12;93209.22;5008789;28;20223;-79
2023/01/23 00:33:43;;;;;;;11.30;10.70;;;;;;;8.20;93.12;93217.16;5009729;28;20238;-80
2023/01/23 00:36:10;;;;;;;11.00;10.30;;;;;;;8.09;93.15;93200.69;5008864;28;20753;-78
2023/01/23 00:38:36;;;;;;;11.20;10.40;;;;;;;8.30;92.60;93230.25;5009673;28;20187;-84
2023/01/23 00:41:01;;;;;;;13.40;12.53;;;;;;;8.11;92.26;93188.22;5009455;28;20735;-76
2023/01/23 00:43:28;;;;;;;10.63;9.97;;;;;;;8.31;92.99;93220.66;5011013;28;20998;-80
2023/01/23 00:45:54;;;;;;;10.07;9.43;;;;;;;8.01;93.72;93206.38;5008689;28;20242;-82
2023/01/23 00:48:19;;;;;;;11.40;10.70;;;;;;;8.01;94.47;93223.78;5010499;28;20214;-89
2023/01/23 00:50:45;;;;;;;11.90;10.90;;;;;;;7.98;95.33;93232.81;5007354;28;20231;-81
2023/01/23 00:53:11;;;;;;;11.90;11.10;;;;;;;7.91;95.03;93227.06;5009393;28;20196;-83
2023/01/23 00:55:37;;;;;;;11.83;11.13;;;;;;;7.82;96.27;93220.75;5008561;28;20219;-82
2023/01/23 00:58:02;;;;;;;12.37;11.43;;;;;;;7.60;95.63;93183.63;5006087;28;20203;-83
2023/01/23 01:00:28;;;;;;;12.13;11.43;;;;;;;7.64;95.42;93210.69;5008239;28;20250;-82
2023/01/23 01:02:53;;;;;;;10.80;10.30;;;;;;;7.89;94.06;93223.91;5009497;28;20218;-81
2023/01/23 01:05:18;;;;;;;11.10;10.30;;;;;;;7.86;94.90;93224.41;5008989;28;20219;-84
2023/01/23 01:07:44;;;;;;;12.33;11.57;;;;;;;7.84;94.71;93223.88;5009338;28;20215;-79
2023/01/23 01:10:10;;;;;;;10.83;10.33;;;;;;;7.99;93.98;93231.03;5008287;28;20241;-81
2023/01/23 01:12:36;;;;;;;11.73;10.80;;;;;;;8.02;94.18;93233.13;5010247;28;20219;-82
2023/01/23 01:15:02;;;;;;;10.80;10.23;;;;;;;7.88;93.70;93206.75;5013029;28;20239;-81
2023/01/23 01:17:28;;;;;;;10.33;9.80;;;;;;;8.12;93.60;93234.00;5013780;28;21596;-81
2023/01/23 01:19:53;;;;;;;11.53;10.83;;;;;;;8.04;94.09;93229.28;5013203;28;20231;-81
2023/01/23 01:22:19;;;;;;;10.00;9.40;;;;;;;7.90;93.92;93228.09;5013041;28;20195;-81
2023/01/23 01:24:44;;;;;;;11.53;10.73;;;;;;;8.15;93.39;93251.69;5013000;28;20303;-81
2023/01/23 01:27:10;;;;;;;10.73;10.10;;;;;;;8.13;93.54;93253.78;5012325;28;20205;-80
2023/01/23 01:29:35;;;;;;;10.83;10.23;;;;;;;8.16;93.30;93255.88;5012811;28;20300;-78
2023/01/23 01:32:01;;;;;;;10.67;9.97;;;;;;;8.14;93.49;93254.53;5013251;28;20250;-80
2023/01/23 01:34:26;;;;;;;10.80;10.20;;;;;;;8.15;93.10;93258.72;5012273;28;20231;-80
2023/01/23 01:36:52;;;;;;;9.93;9.33;;;;;;;8.15;93.14;93253.53;5012917;28;20202;-80
2023/01/23 01:39:23;;;;;;;11.50;10.80;;;;;;;8.18;93.73;93258.22;5012404;28;20302;-85
2023/01/23 01:41:49;;;;;;;12.03;11.23;;;;;;;7.84;94.62;93255.06;5011344;28;20263;-81
2023/01/23 01:44:19;;;;;;;11.37;10.33;;;;;;;8.12;94.53;93275.59;5012706;28;20226;-82
2023/01/23 01:46:45;;;;;;;11.07;10.37;;;;;;;8.15;94.00;93274.34;5010918;28;20176;-81
2023/01/23 01:49:29;;;;;;;12.73;11.40;;;;;;;8.15;94.96;93271.75;5012491;28;20215;-81
2023/01/23 01:52:07;;;;;;;11.97;11.27;;;;;;;8.08;95.12;93265.94;5011184;28;20266;-79
2023/01/23 01:54:51;;;;;;;11.07;10.30;;;;;;;8.16;93.80;93261.09;5011508;28;20223;-81
2023/01/23 01:57:17;;;;;;;11.90;11.13;;;;;;;8.22;94.57;93274.13;5012742;28;20207;-81
2023/01/23 01:59:45;;;;;;;10.97;10.27;;;;;;;8.17;93.98;93257.44;5010817;28;20230;-82
2023/01/23 02:02:14;;;;;;;10.23;9.60;;;;;;;8.33;94.57;93270.63;5011595;28;20300;-82
2023/01/23 02:04:46;;;;;;;11.33;10.23;;;;;;;8.19;94.76;93268.38;5012137;28;20218;-81
2023/01/23 02:07:21;;;;;;;12.20;11.43;;;;;;;8.35;95.02;93269.34;5011164;28;20188;-82
2023/01/23 02:09:48;;;;;;;10.77;10.17;;;;;;;8.30;95.68;93261.47;5011206;28;20234;-81
2023/01/23 02:12:14;;;;;;;11.33;10.37;;;;;;;8.19;97.17;93254.59;5012114;28;20219;-83
2023/01/23 02:14:39;;;;;;;11.80;11.00;;;;;;;8.12;97.94;93254.78;5011915;28;20223;-81
2023/01/23 02:17:05;;;;;;;10.97;10.20;;;;;;;8.26;98.04;93273.41;5012166;28;20190;-82
2023/01/23 02:19:38;;;;;;;11.47;10.47;;;;;;;8.31;97.25;93268.28;5012014;28;20242;-82
2023/01/23 02:22:21;;;;;;;11.33;10.63;;;;;;;8.24;97.93;93269.47;5010499;28;20180;-82
2023/01/23 02:25:01;;;;;;;10.50;9.87;;;;;;;8.28;97.71;93257.56;5010402;28;20262;-82
2023/01/23 02:27:26;;;;;;;11.50;10.80;;;;;;;8.38;97.91;93268.03;5010814;28;20187;-82
2023/01/23 02:29:55;;;;;;;10.77;9.97;;;;;;;8.30;97.59;93269.28;5010784;28;20285;-82
2023/01/23 02:32:23;;;;;;;11.13;10.43;;;;;;;8.21;97.81;93273.34;5010321;28;20207;-81
2023/01/23 02:34:50;;;;;;;12.30;11.43;;;;;;;7.95;99.00;93264.53;5010220;28;20254;-84
2023/01/23 02:37:16;;;;;;;10.50;9.63;;;;;;;8.12;98.64;93264.44;5008875;28;20188;-82
2023/01/23 02:39:42;;;;;;;11.73;10.80;;;;;;;8.10;97.75;93256.88;5011008;28;20266;-83
2023/01/23 02:42:08;;;;;;;11.33;10.63;;;;;;;7.89;99.52;93247.31;5011283;28;20205;-82
2023/01/23 02:44:34;;;;;;;10.73;9.93;;;;;;;8.09;99.14;93270.88;5010700;28;20243;-83
2023/01/23 02:47:11;;;;;;;11.20;10.40;;;;;;;7.93;100.00;93266.59;5010592;28;20206;-84
2023/01/23 02:49:41;;;;;;;10.60;9.93;;;;;;;7.95;100.00;93272.31;5010901;28;20242;-81
2023/01/23 02:52:08;;;;;;;10.27;9.57;;;;;;;7.98;100.00;93274.44;5035697;28;20216;-82
2023/01/23 02:54:34;;;;;;;11.07;10.17;;;;;;;7.88;100.00;93256.16;5011104;28;20227;-82
2023/01/23 02:56:59;;;;;;;10.83;10.23;;;;;;;7.90;100.00;93272.28;5011594;28;20200;-85
2023/01/23 03:02:09;;;;;;;11.33;10.57;;;;;;;7.95;100.00;93261.16;5009479;28;21023;-79
2023/01/23 03:04:34;;;;;;;10.30;9.70;;;;;;;7.83;100.00;93265.69;5010668;28;20255;-78
2023/01/23 03:07:00;;;;;;;11.13;10.10;;;;;;;7.82;100.00;93271.94;5036487;28;20193;-79
2023/01/23 03:09:25;;;;;;;9.37;8.83;;;;;;;7.56;100.00;93244.94;5010560;28;20234;-80
2023/01/23 03:11:51;;;;;;;10.40;9.60;;;;;;;7.68;100.00;93249.97;5011144;28;20238;-80
2023/01/23 03:14:20;;;;;;;10.03;9.43;;;;;;;7.78;100.00;93269.03;5010302;28;20302;-81
2023/01/23 03:16:50;;;;;;;10.10;9.40;;;;;;;7.84;100.00;93267.28;5011105;28;20195;-79
2023/01/23 03:19:17;;;;;;;10.87;10.17;;;;;;;7.83;100.00;93271.69;5011426;28;20231;-79
2023/01/23 03:21:43;;;;;;;10.93;10.33;;;;;;;7.83;100.00;93278.69;5010055;28;20192;-80
2023/01/23 03:24:10;;;;;;;11.03;10.53;;;;;;;7.71;100.00;93271.06;5008974;28;20194;-79
2023/01/23 03:26:40;;;;;;;11.50;10.80;;;;;;;7.49;100.00;93249.50;5008646;28;20183;-80
2023/01/23 03:31:50;;;;;;;11.20;10.40;;;;;;;7.66;100.00;93255.41;5010480;28;20270;-79
2023/01/23 03:34:16;;;;;;;11.63;10.90;;;;;;;7.74;100.00;93257.56;5010266;28;20223;-80
2023/01/23 03:36:43;;;;;;;11.57;10.87;;;;;;;7.57;100.00;93248.28;5010130;28;20226;-80
2023/01/23 03:41:53;;;;;;;11.70;10.90;;;;;;;7.69;100.00;93260.13;5009778;28;20191;-81
2023/01/23 03:44:19;;;;;;;11.50;10.80;;;;;;;7.63;100.00;93255.09;5010277;28;20238;-78
2023/01/23 03:46:46;;;;;;;10.63;10.10;;;;;;;7.58;100.00;93262.88;5009326;28;20183;-79
2023/01/23 03:49:12;;;;;;;11.37;10.57;;;;;;;7.46;100.00;93247.41;5010152;28;20553;-79
2023/01/23 03:51:37;;;;;;;11.87;11.17;;;;;;;7.57;100.00;93259.47;5010093;28;20227;-80
2023/01/23 03:54:03;;;;;;;11.77;10.97;;;;;;;7.43;100.00;93239.31;5009762;28;20221;-79
2023/01/23 03:56:28;;;;;;;11.60;10.90;;;;;;;7.74;100.00;93262.78;5009506;28;20218;-79
2023/01/23 03:58:54;;;;;;;11.10;10.40;;;;;;;7.46;100.00;93225.81;5010345;28;20222;-79
2023/01/23 04:01:19;;;;;;;11.60;10.70;;;;;;;7.63;100.00;93255.91;5010168;28;20207;-79
2023/01/23 04:03:44;;;;;;;12.97;12.03;;;;;;;7.47;100.00;93250.78;5010340;28;20215;-79
2023/01/23 04:06:10;;;;;;;11.33;10.63;;;;;;;7.37;100.00;93251.47;5009668;28;20227;-80
2023/01/23 04:08:35;;;;;;;11.60;10.77;;;;;;;7.48;100.00;93266.13;5009511;28;20214;-81
2023/01/23 04:11:03;;;;;;;10.77;10.07;;;;;;;7.60;100.00;93264.19;5009611;28;20215;-83
2023/01/23 04:13:29;;;;;;;11.43;10.77;;;;;;;7.66;100.00;93258.00;5009956;28;20187;-80
2023/01/23 04:15:54;;;;;;;11.37;10.67;;;;;;;7.73;100.00;93274.22;5008701;28;20346;-80
2023/01/23 04:18:20;;;;;;;10.77;10.07;;;;;;;7.62;100.00;93266.53;5010371;28;20195;-85
2023/01/23 04:20:45;;;;;;;10.40;9.80;;;;;;;7.57;100.00;93269.88;5008493;28;20238;-80
2023/01/23 04:23:10;;;;;;;10.90;10.07;;;;;;;7.70;100.00;93272.09;5008837;28;20187;-81
2023/01/23 04:25:36;;;;;;;11.87;11.17;;;;;;;7.57;100.00;93271.66;5009648;28;20227;-80
2023/01/23 04:28:01;;;;;;;11.27;10.47;;;;;;;7.66;100.00;93271.00;5008861;28;20183;-81
2023/01/23 04:30:26;;;;;;;12.13;11.10;;;;;;;7.60;100.00;93271.97;5009663;28;20219;-80
2023/01/23 04:32:52;;;;;;;11.07;10.47;;;;;;;7.61;100.00;93289.13;5010122;28;20204;-80
2023/01/23 04:35:17;;;;;;;12.30;11.37;;;;;;;7.67;100.00;93282.94;5009257;28;20235;-80
2023/01/23 04:37:42;;;;;;;9.77;9.27;;;;;;;7.46;100.00;93268.19;5009926;28;20191;-81
2023/01/23 04:40:09;;;;;;;12.00;11.37;;;;;;;7.46;100.00;93281.19;5008551;28;20231;-80
2023/01/23 04:42:35;;;;;;;11.53;10.93;;;;;;;7.57;100.00;93295.84;5007807;28;20209;-79
2023/01/23 04:45:00;;;;;;;11.53;10.73;;;;;;;7.61;100.00;93294.31;5009116;28;20962;-80
2023/01/23 04:47:25;;;;;;;9.73;9.23;;;;;;;7.53;100.00;93281.75;5009858;28;20194;-80
2023/01/23 04:49:51;;;;;;;10.13;9.63;;;;;;;7.61;100.00;93288.38;5009383;28;20282;-79
2023/01/23 04:52:16;;;;;;;10.73;10.23;;;;;;;7.47;100.00;93277.53;5008286;28;20234;-83
2023/01/23 04:54:42;;;;;;;10.93;10.23;;;;;;;7.46;100.00;93275.97;5009155;28;20241;-85
2023/01/23 04:57:07;;;;;;;11.67;10.97;;;;;;;7.55;100.00;93279.72;5009779;28;20206;-87
2023/01/23 04:59:33;;;;;;;10.67;10.10;;;;;;;7.50;100.00;93282.25;5009564;28;20231;-83
2023/01/23 05:01:58;;;;;;;10.90;10.30;;;;;;;7.54;100.00;93278.16;5009967;28;20199;-85
2023/01/23 05:04:24;;;;;;;11.13;10.43;;;;;;;7.55;100.00;93278.91;5008497;28;20265;-85
2023/01/23 05:06:49;;;;;;;10.27;9.77;;;;;;;7.36;100.00;93281.03;5009148;28;20206;-86
2023/01/23 05:09:14;;;;;;;12.77;11.67;;;;;;;7.44;100.00;93287.66;5007247;28;20215;-86
2023/01/23 05:11:40;;;;;;;10.57;10.00;;;;;;;7.30;100.00;93265.66;5008393;28;20287;-85
2023/01/23 05:14:05;;;;;;;13.37;12.50;;;;;;;7.37;100.00;93287.81;5008580;28;20222;-76
2023/01/23 05:16:31;;;;;;;11.63;10.83;;;;;;;7.54;100.00;93306.72;5008130;28;20206;-75
2023/01/23 05:18:56;;;;;;;12.03;11.13;;;;;;;7.35;100.00;93286.47;5007803;28;20188;-83
2023/01/23 05:21:21;;;;;;;10.97;10.37;;;;;;;7.51;100.00;93298.63;5006759;28;20219;-82
2023/01/23 05:23:47;;;;;;;11.83;11.13;;;;;;;7.56;100.00;93294.28;5009273;28;20191;-81
2023/01/23 05:26:12;;;;;;;12.50;11.80;;;;;;;7.47;100.00;93302.75;5008209;28;20924;-82
2023/01/23 05:28:37;;;;;;;11.60;10.80;;;;;;;7.38;100.00;93278.22;5008382;28;20176;-82
2023/01/23 05:31:03;;;;;;;11.50;10.60;;;;;;;7.33;100.00;93275.56;5004967;28;20250;-83
2023/01/23 05:33:28;;;;;;;13.00;12.07;;;;;;;7.32;100.00;93287.75;5007476;28;20205;-83
2023/01/23 05:35:58;;;;;;;12.20;11.40;;;;;;;7.38;100.00;93315.38;5008252;28;20219;-82
2023/01/23 05:38:23;;;;;;;11.80;11.00;;;;;;;7.45;100.00;93310.78;5008129;28;20184;-77
2023/01/23 05:40:49;;;;;;;12.93;12.13;;;;;;;7.20;100.00;93275.91;5007394;28;20230;-84
2023/01/23 05:43:15;;;;;;;12.03;11.23;;;;;;;7.40;100.00;93318.50;5005005;28;20264;-84
2023/01/23 05:45:41;;;;;;;11.23;10.53;;;;;;;7.41;100.00;93319.31;5006876;28;20223;-83
2023/01/23 05:48:06;;;;;;;13.07;12.20;;;;;;;7.34;100.00;93318.69;5010124;28;20193;-80
2023/01/23 05:50:31;;;;;;;12.97;11.87;;;;;;;7.25;100.00;93309.75;5010247;28;20215;-86
2023/01/23 05:52:57;;;;;;;11.27;10.67;;;;;;;7.42;100.00;93337.25;5007066;28;20187;-80
2023/01/23 05:55:22;;;;;;;10.57;9.97;;;;;;;7.46;100.00;93346.13;5009057;28;20298;-87
2023/01/23 05:57:48;;;;;;;11.57;10.77;;;;;;;7.32;100.00;93336.31;5007416;28;20192;-79
2023/01/23 06:00:14;;;;;;;11.67;10.97;;;;;;;7.51;100.00;93341.00;5010084;28;20235;-79
2023/01/23 06:02:39;;;;;;;10.83;10.13;;;;;;;7.48;100.00;93341.47;5008735;28;20193;-85
2023/01/23 06:05:05;;;;;;;9.97;9.37;;;;;;;7.40;100.00;93347.09;5008013;28;20227;-80
2023/01/23 06:07:31;;;;;;;10.57;9.87;;;;;;;7.48;100.00;93362.25;5009784;28;20202;-80
2023/01/23 06:09:57;;;;;;;10.97;10.17;;;;;;;7.50;100.00;93364.63;5010884;28;20231;-80
2023/01/23 06:12:22;;;;;;;10.53;9.93;;;;;;;7.35;100.00;93367.00;5010684;28;20298;-82
2023/01/23 06:14:48;;;;;;;11.30;10.57;;;;;;;7.43;100.00;93374.38;5010797;28;20224;-79
2023/01/23 06:17:14;;;;;;;11.77;11.17;;;;;;;7.35;100.00;93352.22;5009963;28;20175;-82
2023/01/23 06:19:39;;;;;;;11.43;10.73;;;;;;;7.50;100.00;93378.38;5011105;28;20219;-83
2023/01/23 06:22:05;;;;;;;10.83;10.23;;;;;;;7.44;100.00;93371.53;5010489;28;20182;-79
2023/01/23 06:24:30;;;;;;;11.30;10.70;;;;;;;7.51;100.00;93377.38;5010563;28;20231;-80
2023/01/23 06:26:56;;;;;;;10.80;10.10;;;;;;;7.31;100.00;93387.50;5007967;28;20238;-81
2023/01/23 06:29:21;;;;;;;11.27;10.53;;;;;;;7.38;100.00;93382.91;5009053;28;20310;-78
2023/01/23 06:31:47;;;;;;;10.77;10.17;;;;;;;7.47;100.00;93402.22;5004020;28;20242;-75
2023/01/23 06:34:13;;;;;;;10.40;9.90;;;;;;;7.38;100.00;93392.50;5002721;28;20235;-75
2023/01/23 06:36:39;;;;;;;10.70;10.13;;;;;;;7.34;100.00;93381.81;5031908;28;20183;-75
2023/01/23 06:39:05;;;;;;;10.53;9.93;;;;;;;7.47;100.00;93391.06;5007664;28;20215;-75
2023/01/23 06:41:30;;;;;;;10.50;9.90;;;;;;;7.51;100.00;93392.94;5005869;28;20246;-74
2023/01/23 06:43:56;;;;;;;10.37;9.67;;;;;;;7.55;100.00;93403.63;5008410;28;20191;-78
2023/01/23 06:46:22;;;;;;;10.27;9.67;;;;;;;7.33;100.00;93376.84;5009135;28;20262;-79
2023/01/23 06:48:47;;;;;;;11.47;10.67;;;;;;;7.38;100.00;93398.47;5009644;28;20199;-80
2023/01/23 06:51:13;;;;;;;11.23;10.53;;;;;;;7.32;100.00;93399.44;5009560;28;20326;-80
2023/01/23 06:53:38;;;;;;;10.63;9.97;;;;;;;7.45;100.00;93400.91;5010268;28;20255;-79
2023/01/23 06:56:05;;;;;;;11.50;10.87;;;;;;;7.27;100.00;93381.19;5006318;28;20242;-81
2023/01/23 06:58:32;;;;;;;11.67;10.87;;;;;;;7.28;100.00;93387.97;5006478;28;20314;-80
2023/01/23 07:00:57;;;;;;;51.50;48.53;;;;;;;7.20;100.00;93377.97;5001890;28;20250;-80
2023/01/23 07:03:23;;;;;;;11.40;10.67;;;;;;;7.16;100.00;93381.31;5016232;28;20255;-77
2023/01/23 07:05:49;;;;;;;14.33;13.43;;;;;;;7.19;100.00;93399.75;5006960;28;20262;-75
2023/01/23 07:08:15;;;;;;;12.97;11.87;;;;;;;7.24;100.00;93415.44;5002781;28;20180;-75
2023/01/23 07:10:40;;;;;;;12.63;11.63;;;;;;;7.03;100.00;93399.78;5009265;28;20234;-76
2023/01/23 07:13:08;;;;;;;13.23;12.13;;;;;;;7.00;100.00;93427.03;5008399;28;20196;-81
2023/01/23 07:15:34;;;;;;;13.90;12.70;;;;;;;7.04;100.00;93422.91;5007020;28;20230;-82
2023/01/23 07:18:00;;;;;;;15.77;14.33;;;;;;;7.05;100.00;93411.50;5008941;28;20188;-73
2023/01/23 07:20:26;;;;;;;13.97;12.67;;;;;;;6.95;100.00;93413.97;5006640;28;20217;-89
2023/01/23 07:22:53;;;;;;;13.73;12.33;;;;;;;7.02;100.00;93421.59;5007734;28;20214;-75
2023/01/23 07:25:18;;;;;;;14.13;12.90;;;;;;;6.94;100.00;93399.38;5007379;28;20227;-82
2023/01/23 07:27:44;;;;;;;14.90;13.60;;;;;;;7.04;100.00;93422.91;5008399;28;20206;-81
2023/01/23 07:30:10;;;;;;;14.83;13.63;;;;;;;6.89;100.00;93422.69;5008734;28;20222;-81
2023/01/23 07:32:35;;;;;;;15.00;13.70;;;;;;;6.91;100.00;93422.47;5009227;28;20215;-75
2023/01/23 07:35:01;;;;;;;16.10;14.47;;;;;;;6.83;100.00;93431.44;5007160;28;20226;-76
2023/01/23 07:37:26;;;;;;;15.30;13.77;;;;;;;6.94;100.00;93432.38;5009167;28;20187;-77
2023/01/23 07:39:52;;;;;;;14.20;12.83;;;;;;;6.82;100.00;93422.03;5009122;28;20246;-81
2023/01/23 07:42:18;;;;;;;15.20;13.80;;;;;;;6.80;100.00;93426.69;5008763;28;20191;-77
2023/01/23 07:44:43;;;;;;;15.30;13.80;;;;;;;6.81;100.00;93438.66;5007092;28;20242;-76
2023/01/23 07:47:09;;;;;;;14.17;12.87;;;;;;;7.07;100.00;93442.41;5006214;28;20206;-77
2023/01/23 07:49:34;;;;;;;13.37;12.07;;;;;;;7.14;100.00;93451.66;5008630;28;20229;-78
2023/01/23 07:51:59;;;;;;;14.13;12.93;;;;;;;7.03;100.00;93444.72;5008457;28;20246;-77
2023/01/23 07:54:25;;;;;;;14.80;13.57;;;;;;;6.98;100.00;93433.44;5008727;28;20230;-77
2023/01/23 07:56:50;;;;;;;14.13;12.50;;;;;;;6.91;100.00;93446.59;5009212;28;21030;-80
2023/01/23 07:59:16;;;;;;;14.00;12.60;;;;;;;7.09;100.00;93451.56;5008255;28;20223;-77
2023/01/23 08:01:41;;;;;;;12.53;11.53;;;;;;;7.10;100.00;93439.34;5007374;28;20218;-77
2023/01/23 08:04:06;;;;;;;13.47;12.37;;;;;;;7.05;100.00;93452.28;5007778;28;20188;-78
2023/01/23 08:06:33;;;;;;;13.50;12.30;;;;;;;7.01;100.00;93448.56;5007624;28;20195;-77
2023/01/23 08:08:58;;;;;;;13.40;12.13;;;;;;;7.09;100.00;93461.94;5006174;28;20192;-74
2023/01/23 08:11:25;;;;;;;13.27;11.97;;;;;;;6.90;100.00;93434.63;5007905;28;20302;-85
2023/01/23 08:13:51;;;;;;;14.27;12.87;;;;;;;7.00;100.00;93458.16;5006042;28;20215;-76
2023/01/23 08:16:17;;;;;;;16.77;14.27;;;;;;;7.01;100.00;93475.31;5006856;28;20198;-85
2023/01/23 08:18:42;;;;;;;18.17;16.70;;;;;;;7.07;100.00;93482.16;5007921;28;20188;-81
2023/01/23 08:21:08;;;;;;;15.53;14.33;;;;;;;6.88;100.00;93485.97;5005929;28;20227;-78
2023/01/23 08:23:34;;;;;;;13.77;12.57;;;;;;;6.90;100.00;93483.94;5007828;28;20198;-79
2023/01/23 08:26:02;;;;;;;13.37;12.37;;;;;;;6.95;100.00;93484.03;5005664;28;20289;-78
2023/01/23 08:28:28;;;;;;;14.00;12.50;;;;;;;6.85;100.00;93496.84;5007065;28;20878;-79
2023/01/23 08:30:54;;;;;;;12.97;11.97;;;;;;;6.88;100.00;93498.19;5005708;28;20241;-80
2023/01/23 08:33:20;;;;;;;12.23;11.33;;;;;;;6.80;100.00;93494.19;5007448;28;20299;-80
2023/01/23 08:35:51;;;;;;;13.57;12.57;;;;;;;6.82;100.00;93501.72;5005924;28;20262;-79
2023/01/23 08:38:18;;;;;;;12.93;11.80;;;;;;;6.94;100.00;93495.44;5008167;28;20215;-80
2023/01/23 08:40:44;;;;;;;12.50;11.40;;;;;;;6.97;100.00;93505.38;5007954;28;20223;-81
2023/01/23 08:43:12;;;;;;;12.53;11.40;;;;;;;7.07;100.00;93502.94;5007006;28;20180;-79
2023/01/23 08:45:41;;;;;;;12.00;11.10;;;;;;;7.04;100.00;93502.59;5007591;28;20234;-79
2023/01/23 08:48:07;;;;;;;13.27;12.10;;;;;;;7.07;100.00;93513.31;5008426;28;20248;-79
2023/01/23 08:50:33;;;;;;;12.80;11.57;;;;;;;7.10;100.00;93507.66;5007037;28;20250;-79
2023/01/23 08:52:58;;;;;;;11.33;10.47;;;;;;;7.04;100.00;93526.75;5007120;28;20199;-82
2023/01/23 08:55:24;;;;;;;12.93;11.87;;;;;;;6.94;100.00;93516.19;5005409;28;20231;-73
2023/01/23 08:57:49;;;;;;;12.43;11.33;;;;;;;6.92;100.00;93522.66;5005135;28;20236;-86
2023/01/23 09:00:15;;;;;;;15.50;14.33;;;;;;;6.73;100.00;93487.53;5002020;28;20219;-85
2023/01/23 09:02:40;;;;;;;12.63;11.73;;;;;;;6.95;100.00;93540.34;5008945;28;20308;-85
2023/01/23 09:05:06;;;;;;;11.73;11.00;;;;;;;6.75;100.00;93496.69;5005894;28;20257;-86
2023/01/23 09:07:35;;;;;;;13.07;11.97;;;;;;;6.82;100.00;93507.69;5016512;28;20232;-84
2023/01/23 09:10:00;;;;;;;13.20;11.73;;;;;;;6.82;100.00;93506.91;5008454;28;20231;-86
2023/01/23 09:12:26;;;;;;;11.80;10.83;;;;;;;6.81;100.00;93513.09;5009135;28;20713;-86
2023/01/23 09:14:51;;;;;;;13.57;12.40;;;;;;;7.08;100.00;93535.63;5007647;28;20254;-85
2023/01/23 09:17:16;;;;;;;14.37;13.27;;;;;;;7.08;100.00;93538.25;5033114;28;20190;-85
2023/01/23 09:19:42;;;;;;;12.30;11.30;;;;;;;7.12;100.00;93538.56;5009288;28;20227;-76
2023/01/23 09:22:07;;;;;;;12.80;11.80;;;;;;;7.00;100.00;93543.03;5008653;28;20196;-86
2023/01/23 09:24:33;;;;;;;12.97;11.90;;;;;;;6.78;100.00;93527.34;5008646;28;20700;-82
2023/01/23 09:26:58;;;;;;;13.67;12.50;;;;;;;7.02;99.87;93548.78;5008868;28;20206;-80
2023/01/23 09:29:23;;;;;;;13.50;12.30;;;;;;;7.02;99.65;93528.78;5008528;28;20223;-80
2023/01/23 09:31:49;;;;;;;12.80;11.90;;;;;;;6.99;100.00;93536.28;5008652;28;20234;-79
2023/01/23 09:34:14;;;;;;;13.43;12.23;;;;;;;6.71;100.00;93479.97;5010401;28;20223;-82
2023/01/23 09:36:39;;;;;;;12.93;11.80;;;;;;;6.75;100.00;93512.25;5012068;28;20217;-82
2023/01/23 09:39:05;;;;;;;12.57;11.60;;;;;;;6.60;100.00;93473.03;5012941;28;20199;-81
2023/01/23 09:41:30;;;;;;;12.57;11.60;;;;;;;6.66;100.00;93494.69;5010843;28;20192;-80
2023/01/23 09:44:06;;;;;;;13.03;11.83;;;;;;;6.83;100.00;93524.84;5012374;28;20198;-81
2023/01/23 09:46:50;;;;;;;13.83;12.53;;;;;;;6.75;100.00;93508.84;5011380;28;20211;-82
2023/01/23 09:49:21;;;;;;;14.93;13.80;;;;;;;6.78;100.00;93506.59;5012094;28;20223;-81
2023/01/23 09:52:21;;;;;;;14.43;13.13;;;;;;;6.85;100.00;93507.22;5035635;28;20231;-86
2023/01/23 09:54:50;;;;;;;14.23;12.93;;;;;;;6.86;100.00;93502.81;5012006;28;20227;-85
2023/01/23 09:57:25;;;;;;;14.23;12.90;;;;;;;6.67;100.00;93494.44;5011027;28;20184;-84
2023/01/23 10:00:21;;;;;;;12.80;11.83;;;;;;;6.77;100.00;93512.00;5010467;28;20238;-85
2023/01/23 10:02:46;;;;;;;13.90;12.87;;;;;;;6.46;100.00;93500.28;5013810;28;20267;-83
2023/01/23 10:05:19;;;;;;;13.13;12.10;;;;;;;6.61;100.00;93497.97;5012312;28;20215;-86
2023/01/23 10:07:50;;;;;;;12.87;11.87;;;;;;;6.89;100.00;93497.97;5010268;28;20195;-80
2023/01/23 10:10:25;;;;;;;12.67;11.67;;;;;;;6.66;100.00;93492.88;5011896;28;20237;-81
2023/01/23 10:13:13;;;;;;;12.73;11.57;;;;;;;6.47;100.00;93473.34;5011134;28;20237;-81
2023/01/23 10:16:00;;;;;;;13.10;11.90;;;;;;;6.76;100.00;93490.47;5009177;28;20231;-77
2023/01/23 10:18:39;;;;;;;13.20;12.10;;;;;;;6.60;100.00;93498.97;5012118;28;20202;-77
2023/01/23 10:21:21;;;;;;;12.83;11.83;;;;;;;6.72;100.00;93497.16;5010142;28;20226;-80
2023/01/23 10:24:07;;;;;;;13.23;12.10;;;;;;;6.67;100.00;93499.63;5011700;28;20195;-82
2023/01/23 10:26:38;;;;;;;13.30;12.30;;;;;;;6.70;100.00;93478.41;5034607;28;20215;-77
2023/01/23 10:29:33;;;;;;;12.90;11.90;;;;;;;6.64;100.00;93468.19;5010088;28;20276;-78
2023/01/23 10:32:01;;;;;;;15.03;13.53;;;;;;;6.75;100.00;93483.69;5009786;28;20263;-79
2023/01/23 10:34:50;;;;;;;13.37;12.03;;;;;;;6.70;100.00;93493.97;5011657;28;20226;-80
2023/01/23 10:37:24;;;;;;;14.77;13.23;;;;;;;6.84;100.00;93500.47;5010861;28;20179;-82
2023/01/23 10:39:58;;;;;;;13.47;12.17;;;;;;;6.77;100.00;93489.44;5009000;28;20262;-80
2023/01/23 10:42:26;;;;;;;13.23;12.23;;;;;;;6.80;100.00;93483.78;5011890;28;20202;-75
2023/01/23 10:44:51;;;;;;;13.93;12.83;;;;;;;6.92;100.00;93487.09;5010297;28;20254;-78
2023/01/23 10:47:28;;;;;;;14.53;13.23;;;;;;;6.45;100.00;93428.69;5010260;28;20212;-77
2023/01/23 10:49:54;;;;;;;13.70;12.40;;;;;;;6.80;100.00;93493.38;5011603;28;20226;-74
2023/01/23 10:52:36;;;;;;;14.90;13.60;;;;;;;6.81;100.00;93490.56;5009196;28;20301;-76
2023/01/23 10:55:05;;;;;;;15.67;14.10;;;;;;;6.88;100.00;93491.19;5010320;28;20235;-76
2023/01/23 10:57:44;;;;;;;14.97;13.57;;;;;;;6.87;100.00;93489.59;5010985;28;20192;-77
2023/01/23 11:00:41;;;;;;;15.50;12.67;;;;;;;6.83;100.00;93493.72;5010440;28;20235;-77
2023/01/23 11:03:18;;;;;;;14.30;13.10;;;;;;;6.83;100.00;93485.91;5006612;28;20210;-76
2023/01/23 11:05:53;;;;;;;14.40;13.20;;;;;;;6.74;100.00;93468.38;5009741;28;20227;-77
2023/01/23 11:08:26;;;;;;;15.17;13.57;;;;;;;6.85;100.00;93496.06;5008954;28;20926;-75
2023/01/23 11:10:53;;;;;;;14.67;13.53;;;;;;;6.71;100.00;93490.34;5008394;28;20253;-76
2023/01/23 11:13:27;;;;;;;13.80;12.73;;;;;;;6.86;100.00;93485.44;5008263;28;20211;-78
2023/01/23 11:15:53;;;;;;;16.23;14.73;;;;;;;6.66;100.00;93497.28;5028643;28;20251;-78
2023/01/23 11:18:29;;;;;;;14.10;12.90;;;;;;;6.56;100.00;93482.31;5007557;28;20901;-77
2023/01/23 11:20:55;;;;;;;14.40;13.30;;;;;;;6.89;100.00;93497.97;5008747;28;20230;-78
2023/01/23 11:23:20;;;;;;;14.27;12.90;;;;;;;6.84;100.00;93484.88;5009480;28;20187;-78
2023/01/23 11:25:48;;;;;;;14.40;13.10;;;;;;;6.79;100.00;93492.59;5006265;28;20251;-78
2023/01/23 11:28:32;;;;;;;12.97;11.80;;;;;;;6.71;100.00;93494.78;5008576;28;20262;-76
2023/01/23 11:31:15;;;;;;;14.43;13.13;;;;;;;6.69;100.00;93497.63;5006019;28;20224;-79